Terminal Aerodrome Forecast
Issued by NWS

Home | Current Version | Previous Version | Graphics & Text | Print | Product List | Glossary On
Versions: 1 2 3 4 5 6 7 8 9 10 11 12 13 14 15 16 17 18 19 20 21 22 23
843
FTUS43 KICT 290957 AAB
TAFSLN
TAF AMD
KSLN 290957Z 2910/3006 04018G26KT P6SM VCTS BKN080CB
      TEMPO 2910/2912 -TSRA BKN040CB
     FM291300 20010KT P6SM BKN080 BKN090
     FM291900 18013KT P6SM SCT080
     FM300300 03006KT P6SM BKN150=

USA.gov is the U.S. government's official web portal to all federal, state and local government web resources and services.